Addis, Louisiana
Current Conditions -  °F | °C
As of 9:53 AM on Saturday 25 Oct 2014 (Local Time) from KBTR Reporting Station
Clear Clear  
Wind Chill: 19°   Ceiling: Unl
Heat Index: 19°   Visibility: 10mi
Dew Point: 11°   Wind: 6mph
Humidity: 59%   Direction: 40°NE
Pressure: 30.18"   Gusts: NA
Location:  30.35°N, 91.27°W
Report Text: KBTR 251453Z 04005KT 10SM CLR 19/11 A3018 RMK AO2 SLP220 T01890106 53017
Loading
Personal Weather Stations






























Interactive Weather Map
Tropical Storm Tracking
New forecast layout! Learn more

10-Day Weather Forecast

Advertisements
Track Severe Weather on mobile